sensor_id;sensor_type;location;lat;lon;timestamp;pressure;altitude;pressure_sealevel;temperature;humidity
72086;BME280;64750;52.134;5.424;2023-04-06T00:02:18;102038.56;;;6.17;62.64
72086;BME280;64750;52.134;5.424;2023-04-06T00:04:45;102037.72;;;6.15;62.82
72086;BME280;64750;52.134;5.424;2023-04-06T00:07:11;102035.19;;;6.12;62.85
72086;BME280;64750;52.134;5.424;2023-04-06T00:09:38;102033.47;;;6.11;63.07
72086;BME280;64750;52.134;5.424;2023-04-06T00:12:04;102037.84;;;6.11;63.26
72086;BME280;64750;52.134;5.424;2023-04-06T00:14:31;102035.28;;;6.09;63.22
72086;BME280;64750;52.134;5.424;2023-04-06T00:16:58;102035.28;;;6.07;63.08
72086;BME280;64750;52.134;5.424;2023-04-06T00:19:24;102028.38;;;6.05;63.39
72086;BME280;64750;52.134;5.424;2023-04-06T00:21:51;102024.09;;;6.02;63.31
72086;BME280;64750;52.134;5.424;2023-04-06T00:24:17;102027.66;;;5.97;63.35
72086;BME280;64750;52.134;5.424;2023-04-06T00:26:44;102016.44;;;5.93;63.44
72086;BME280;64750;52.134;5.424;2023-04-06T00:29:10;102025.13;;;5.94;63.45
72086;BME280;64750;52.134;5.424;2023-04-06T00:31:36;102019.00;;;5.95;63.45
72086;BME280;64750;52.134;5.424;2023-04-06T00:34:03;102018.25;;;5.89;63.42
72086;BME280;64750;52.134;5.424;2023-04-06T00:36:29;102006.06;;;5.90;63.49
72086;BME280;64750;52.134;5.424;2023-04-06T00:38:56;102010.47;;;5.88;63.67
72086;BME280;64750;52.134;5.424;2023-04-06T00:41:22;102012.28;;;5.84;63.82
72086;BME280;64750;52.134;5.424;2023-04-06T00:43:49;102006.16;;;5.85;63.82
72086;BME280;64750;52.134;5.424;2023-04-06T00:46:15;102007.06;;;5.84;63.88
72086;BME280;64750;52.134;5.424;2023-04-06T00:48:42;101993.19;;;5.82;63.87
72086;BME280;64750;52.134;5.424;2023-04-06T00:51:08;101986.28;;;5.80;63.96
72086;BME280;64750;52.134;5.424;2023-04-06T00:53:34;101987.16;;;5.80;63.90
72086;BME280;64750;52.134;5.424;2023-04-06T00:56:01;101984.50;;;5.82;64.00
72086;BME280;64750;52.134;5.424;2023-04-06T00:58:27;101988.94;;;5.78;64.01
72086;BME280;64750;52.134;5.424;2023-04-06T01:00:54;101987.19;;;5.79;64.10
72086;BME280;64750;52.134;5.424;2023-04-06T01:06:00;101979.47;;;5.72;63.99
72086;BME280;64750;52.134;5.424;2023-04-06T01:08:27;101977.88;;;5.67;64.17
72086;BME280;64750;52.134;5.424;2023-04-06T01:10:53;101976.25;;;5.61;64.17
72086;BME280;64750;52.134;5.424;2023-04-06T01:13:20;101978.84;;;5.61;64.42
72086;BME280;64750;52.134;5.424;2023-04-06T01:15:47;101979.72;;;5.62;64.55
72086;BME280;64750;52.134;5.424;2023-04-06T01:18:14;101970.22;;;5.57;64.57
72086;BME280;64750;52.134;5.424;2023-04-06T01:20:41;101965.94;;;5.55;64.60
72086;BME280;64750;52.134;5.424;2023-04-06T01:23:07;101966.81;;;5.55;64.95
72086;BME280;64750;52.134;5.424;2023-04-06T01:25:34;101963.25;;;5.59;64.90
72086;BME280;64750;52.134;5.424;2023-04-06T01:28:00;101963.25;;;5.59;64.82
72086;BME280;64750;52.134;5.424;2023-04-06T01:30:27;101962.44;;;5.56;65.17
72086;BME280;64750;52.134;5.424;2023-04-06T01:32:53;101956.38;;;5.55;65.30
72086;BME280;64750;52.134;5.424;2023-04-06T01:35:20;101955.53;;;5.53;65.39
72086;BME280;64750;52.134;5.424;2023-04-06T01:37:46;101955.50;;;5.56;65.33
72086;BME280;64750;52.134;5.424;2023-04-06T01:40:13;101950.19;;;5.59;65.12
72086;BME280;64750;52.134;5.424;2023-04-06T01:42:40;101936.22;;;5.62;64.87
72086;BME280;64750;52.134;5.424;2023-04-06T01:45:06;101941.38;;;5.65;64.94
72086;BME280;64750;52.134;5.424;2023-04-06T01:47:33;101931.81;;;5.66;65.06
72086;BME280;64750;52.134;5.424;2023-04-06T01:49:59;101930.09;;;5.65;64.94
72086;BME280;64750;52.134;5.424;2023-04-06T01:52:26;101929.25;;;5.63;64.98
72086;BME280;64750;52.134;5.424;2023-04-06T01:54:52;101925.75;;;5.64;65.06
72086;BME280;64750;52.134;5.424;2023-04-06T01:57:19;101924.88;;;5.65;65.07
72086;BME280;64750;52.134;5.424;2023-04-06T01:59:46;101924.91;;;5.63;65.23
72086;BME280;64750;52.134;5.424;2023-04-06T02:02:12;101928.38;;;5.64;65.43
72086;BME280;64750;52.134;5.424;2023-04-06T02:04:39;101919.75;;;5.62;65.67
72086;BME280;64750;52.134;5.424;2023-04-06T02:07:05;101915.38;;;5.62;65.74
72086;BME280;64750;52.134;5.424;2023-04-06T02:09:32;101912.81;;;5.61;66.05
72086;BME280;64750;52.134;5.424;2023-04-06T02:11:58;101907.50;;;5.64;66.12
72086;BME280;64750;52.134;5.424;2023-04-06T02:14:25;101907.44;;;5.67;65.94
72086;BME280;64750;52.134;5.424;2023-04-06T02:16:52;101907.44;;;5.67;66.14
72086;BME280;64750;52.134;5.424;2023-04-06T02:19:18;101901.31;;;5.68;65.89
72086;BME280;64750;52.134;5.424;2023-04-06T02:21:45;101896.94;;;5.70;65.72
72086;BME280;64750;52.134;5.424;2023-04-06T02:24:11;101890.84;;;5.71;65.97
72086;BME280;64750;52.134;5.424;2023-04-06T02:26:38;101894.28;;;5.73;66.05
72086;BME280;64750;52.134;5.424;2023-04-06T02:29:04;101890.78;;;5.72;65.95
72086;BME280;64750;52.134;5.424;2023-04-06T02:31:32;101895.09;;;5.75;66.04
72086;BME280;64750;52.134;5.424;2023-04-06T02:33:58;101895.88;;;5.79;66.00
72086;BME280;64750;52.134;5.424;2023-04-06T02:36:25;101892.47;;;5.75;66.08
72086;BME280;64750;52.134;5.424;2023-04-06T02:38:52;101885.53;;;5.74;65.68
72086;BME280;64750;52.134;5.424;2023-04-06T02:41:18;101884.72;;;5.72;65.83
72086;BME280;64750;52.134;5.424;2023-04-06T02:43:44;101889.88;;;5.75;65.75
72086;BME280;64750;52.134;5.424;2023-04-06T02:46:11;101888.91;;;5.79;65.90
72086;BME280;64750;52.134;5.424;2023-04-06T02:48:37;101880.19;;;5.80;65.89
72086;BME280;64750;52.134;5.424;2023-04-06T02:51:04;101879.28;;;5.81;65.85
72086;BME280;64750;52.134;5.424;2023-04-06T02:53:30;101874.97;;;5.80;65.90
72086;BME280;64750;52.134;5.424;2023-04-06T02:55:56;101866.28;;;5.80;65.81
72086;BME280;64750;52.134;5.424;2023-04-06T02:58:23;101872.34;;;5.80;65.87
72086;BME280;64750;52.134;5.424;2023-04-06T03:00:49;101862.75;;;5.82;66.00
72086;BME280;64750;52.134;5.424;2023-04-06T03:03:16;101858.31;;;5.86;65.97
72086;BME280;64750;52.134;5.424;2023-04-06T03:05:42;101857.38;;;5.88;65.69
72086;BME280;64750;52.134;5.424;2023-04-06T03:08:09;101852.13;;;5.90;65.67
72086;BME280;64750;52.134;5.424;2023-04-06T03:10:35;101859.81;;;5.95;65.39
72086;BME280;64750;52.134;5.424;2023-04-06T03:13:02;101854.59;;;5.95;65.05
72086;BME280;64750;52.134;5.424;2023-04-06T03:15:28;101858.00;;;6.00;64.47
72086;BME280;64750;52.134;5.424;2023-04-06T03:17:54;101850.06;;;6.04;63.55
72086;BME280;64750;52.134;5.424;2023-04-06T03:20:24;101855.13;;;6.11;62.54
72086;BME280;64750;52.134;5.424;2023-04-06T03:22:50;101842.88;;;6.13;61.98
72086;BME280;64750;52.134;5.424;2023-04-06T03:25:16;101848.88;;;6.16;61.37
72086;BME280;64750;52.134;5.424;2023-04-06T03:27:43;101848.81;;;6.19;61.00
72086;BME280;64750;52.134;5.424;2023-04-06T03:30:10;101845.31;;;6.20;60.47
72086;BME280;64750;52.134;5.424;2023-04-06T03:32:36;101842.66;;;6.22;60.37
72086;BME280;64750;52.134;5.424;2023-04-06T03:35:03;101841.78;;;6.21;59.96
72086;BME280;64750;52.134;5.424;2023-04-06T03:37:29;101839.16;;;6.23;59.71
72086;BME280;64750;52.134;5.424;2023-04-06T03:39:56;101836.50;;;6.24;59.51
72086;BME280;64750;52.134;5.424;2023-04-06T03:42:22;101830.41;;;6.24;59.54
72086;BME280;64750;52.134;5.424;2023-04-06T03:44:49;101831.28;;;6.24;59.28
72086;BME280;64750;52.134;5.424;2023-04-06T03:47:15;101829.53;;;6.25;59.08
72086;BME280;64750;52.134;5.424;2023-04-06T03:49:42;101831.28;;;6.24;58.79
72086;BME280;64750;52.134;5.424;2023-04-06T03:52:08;101830.41;;;6.26;58.93
72086;BME280;64750;52.134;5.424;2023-04-06T03:54:34;101826.88;;;6.27;58.86
72086;BME280;64750;52.134;5.424;2023-04-06T03:57:01;101828.53;;;6.29;58.64
72086;BME280;64750;52.134;5.424;2023-04-06T03:59:27;101825.09;;;6.29;58.48
72086;BME280;64750;52.134;5.424;2023-04-06T04:01:54;101818.09;;;6.29;58.30
72086;BME280;64750;52.134;5.424;2023-04-06T04:04:21;101820.75;;;6.28;58.13
72086;BME280;64750;52.134;5.424;2023-04-06T04:06:47;101823.38;;;6.28;58.03
72086;BME280;64750;52.134;5.424;2023-04-06T04:09:13;101823.38;;;6.28;57.56
72086;BME280;64750;52.134;5.424;2023-04-06T04:11:40;101825.19;;;6.26;57.71
72086;BME280;64750;52.134;5.424;2023-04-06T04:14:06;101819.97;;;6.24;57.60
72086;BME280;64750;52.134;5.424;2023-04-06T04:16:33;101815.63;;;6.24;57.61
72086;BME280;64750;52.134;5.424;2023-04-06T04:18:59;101816.56;;;6.22;57.78
72086;BME280;64750;52.134;5.424;2023-04-06T04:21:29;101820.03;;;6.22;57.65
72086;BME280;64750;52.134;5.424;2023-04-06T04:23:56;101816.53;;;6.23;57.87
72086;BME280;64750;52.134;5.424;2023-04-06T04:26:22;101819.13;;;6.23;57.81
72086;BME280;64750;52.134;5.424;2023-04-06T04:28:49;101820.84;;;6.24;57.72
72086;BME280;64750;52.134;5.424;2023-04-06T04:31:15;101818.25;;;6.24;57.83
72086;BME280;64750;52.134;5.424;2023-04-06T04:33:44;101814.75;;;6.24;57.89
72086;BME280;64750;52.134;5.424;2023-04-06T04:36:11;101820.03;;;6.22;58.04
72086;BME280;64750;52.134;5.424;2023-04-06T04:38:37;101815.69;;;6.21;58.40
72086;BME280;64750;52.134;5.424;2023-04-06T04:41:04;101820.91;;;6.21;58.38
72086;BME280;64750;52.134;5.424;2023-04-06T04:43:30;101820.91;;;6.21;58.50
72086;BME280;64750;52.134;5.424;2023-04-06T04:45:58;101819.22;;;6.20;59.17
72086;BME280;64750;52.134;5.424;2023-04-06T04:48:25;101815.69;;;6.21;58.94
72086;BME280;64750;52.134;5.424;2023-04-06T04:50:52;101815.69;;;6.21;58.60
72086;BME280;64750;52.134;5.424;2023-04-06T04:53:18;101817.41;;;6.22;58.43
72086;BME280;64750;52.134;5.424;2023-04-06T04:55:45;101816.56;;;6.22;58.22
72086;BME280;64750;52.134;5.424;2023-04-06T04:58:11;101818.31;;;6.21;58.30
72086;BME280;64750;52.134;5.424;2023-04-06T05:00:45;101818.31;;;6.21;58.16
72086;BME280;64750;52.134;5.424;2023-04-06T05:03:23;101813.16;;;6.18;57.98
72086;BME280;64750;52.134;5.424;2023-04-06T05:05:49;101807.06;;;6.19;57.93
72086;BME280;64750;52.134;5.424;2023-04-06T05:08:16;101810.56;;;6.18;58.02
72086;BME280;64750;52.134;5.424;2023-04-06T05:10:43;101811.44;;;6.17;58.45
72086;BME280;64750;52.134;5.424;2023-04-06T05:13:10;101808.00;;;6.17;58.06
72086;BME280;64750;52.134;5.424;2023-04-06T05:15:37;101808.84;;;6.17;58.11
72086;BME280;64750;52.134;5.424;2023-04-06T05:18:04;101809.72;;;6.18;58.23
72086;BME280;64750;52.134;5.424;2023-04-06T05:20:32;101804.50;;;6.16;58.14
72086;BME280;64750;52.134;5.424;2023-04-06T05:22:59;101807.13;;;6.16;58.08
72086;BME280;64750;52.134;5.424;2023-04-06T05:25:25;101802.78;;;6.17;58.30
72086;BME280;64750;52.134;5.424;2023-04-06T05:27:52;101803.63;;;6.17;58.33
72086;BME280;64750;52.134;5.424;2023-04-06T05:30:18;101801.84;;;6.19;58.18
72086;BME280;64750;52.134;5.424;2023-04-06T05:32:44;101796.69;;;6.16;58.01
72086;BME280;64750;52.134;5.424;2023-04-06T05:35:11;101795.84;;;6.16;58.07
72086;BME280;64750;52.134;5.424;2023-04-06T05:37:38;101795.84;;;6.16;58.29
72086;BME280;64750;52.134;5.424;2023-04-06T05:40:05;101804.50;;;6.16;58.22
72086;BME280;64750;52.134;5.424;2023-04-06T05:42:39;101796.69;;;6.16;58.36
72086;BME280;64750;52.134;5.424;2023-04-06T05:45:06;101798.41;;;6.17;58.41
72086;BME280;64750;52.134;5.424;2023-04-06T05:47:33;101794.91;;;6.18;58.57
72086;BME280;64750;52.134;5.424;2023-04-06T05:49:59;101794.84;;;6.20;58.51
72086;BME280;64750;52.134;5.424;2023-04-06T05:52:26;101786.97;;;6.21;58.80
72086;BME280;64750;52.134;5.424;2023-04-06T05:54:52;101793.13;;;6.20;58.63
72086;BME280;64750;52.134;5.424;2023-04-06T05:57:19;101791.41;;;6.19;58.71
72086;BME280;64750;52.134;5.424;2023-04-06T05:59:45;101791.34;;;6.21;58.86
72086;BME280;64750;52.134;5.424;2023-04-06T06:02:11;101789.59;;;6.21;59.04
72086;BME280;64750;52.134;5.424;2023-04-06T06:04:38;101780.03;;;6.22;58.88
72086;BME280;64750;52.134;5.424;2023-04-06T06:07:05;101787.81;;;6.23;58.94
72086;BME280;64750;52.134;5.424;2023-04-06T06:09:31;101792.13;;;6.24;58.97
72086;BME280;64750;52.134;5.424;2023-04-06T06:11:59;101788.66;;;6.24;59.10
72086;BME280;64750;52.134;5.424;2023-04-06T06:14:26;101789.59;;;6.21;58.94
72086;BME280;64750;52.134;5.424;2023-04-06T06:16:54;101787.84;;;6.22;59.05
72086;BME280;64750;52.134;5.424;2023-04-06T06:19:20;101787.81;;;6.23;59.16
72086;BME280;64750;52.134;5.424;2023-04-06T06:21:47;101780.03;;;6.22;59.21
72086;BME280;64750;52.134;5.424;2023-04-06T06:24:13;101789.56;;;6.23;59.33
72086;BME280;64750;52.134;5.424;2023-04-06T06:26:40;101781.75;;;6.23;59.55
72086;BME280;64750;52.134;5.424;2023-04-06T06:29:06;101783.44;;;6.24;59.74
72086;BME280;64750;52.134;5.424;2023-04-06T06:31:33;101786.91;;;6.24;59.77
72086;BME280;64750;52.134;5.424;2023-04-06T06:34:00;101782.47;;;6.27;59.91
72086;BME280;64750;52.134;5.424;2023-04-06T06:36:26;101795.47;;;6.30;60.13
72086;BME280;64750;52.134;5.424;2023-04-06T06:38:53;101783.22;;;6.32;60.22
72086;BME280;64750;52.134;5.424;2023-04-06T06:41:20;101787.53;;;6.33;60.23
72086;BME280;64750;52.134;5.424;2023-04-06T06:43:46;101780.59;;;6.33;60.32
72086;BME280;64750;52.134;5.424;2023-04-06T06:46:13;101784.88;;;6.34;60.29
72086;BME280;64750;52.134;5.424;2023-04-06T06:48:39;101785.66;;;6.38;60.39
72086;BME280;64750;52.134;5.424;2023-04-06T06:51:06;101778.66;;;6.40;60.42
72086;BME280;64750;52.134;5.424;2023-04-06T06:53:32;101778.66;;;6.40;60.35
72086;BME280;64750;52.134;5.424;2023-04-06T06:55:59;101780.41;;;6.39;60.61
72086;BME280;64750;52.134;5.424;2023-04-06T06:58:25;101791.72;;;6.40;60.87
72086;BME280;64750;52.134;5.424;2023-04-06T07:00:56;101783.88;;;6.40;60.99
72086;BME280;64750;52.134;5.424;2023-04-06T07:03:23;101786.34;;;6.45;61.01
72086;BME280;64750;52.134;5.424;2023-04-06T07:05:49;101786.28;;;6.48;61.15
72086;BME280;64750;52.134;5.424;2023-04-06T07:08:20;101780.13;;;6.50;61.23
72086;BME280;64750;52.134;5.424;2023-04-06T07:10:47;101774.78;;;6.53;61.61
72086;BME280;64750;52.134;5.424;2023-04-06T07:13:14;101780.78;;;6.57;61.58
72086;BME280;64750;52.134;5.424;2023-04-06T07:15:48;101779.94;;;6.56;61.63
72086;BME280;64750;52.134;5.424;2023-04-06T07:18:16;101779.94;;;6.56;61.71
72086;BME280;64750;52.134;5.424;2023-04-06T07:20:42;101773.78;;;6.57;61.52
72086;BME280;64750;52.134;5.424;2023-04-06T07:23:09;101765.91;;;6.61;61.67
72086;BME280;64750;52.134;5.424;2023-04-06T07:25:35;101768.50;;;6.61;61.76
72086;BME280;64750;52.134;5.424;2023-04-06T07:28:03;101770.22;;;6.62;61.69
72086;BME280;64750;52.134;5.424;2023-04-06T07:30:29;101766.78;;;6.60;61.14
72086;BME280;64750;52.134;5.424;2023-04-06T07:32:57;101761.50;;;6.61;61.18
72086;BME280;64750;52.134;5.424;2023-04-06T07:35:26;101765.84;;;6.62;60.99
72086;BME280;64750;52.134;5.424;2023-04-06T07:37:53;101765.78;;;6.64;60.83
72086;BME280;64750;52.134;5.424;2023-04-06T07:40:20;101765.78;;;6.64;60.88
72086;BME280;64750;52.134;5.424;2023-04-06T07:42:47;101765.78;;;6.65;60.82
72086;BME280;64750;52.134;5.424;2023-04-06T07:45:13;101771.78;;;6.67;61.01
72086;BME280;64750;52.134;5.424;2023-04-06T07:47:42;101770.94;;;6.67;60.61
72086;BME280;64750;52.134;5.424;2023-04-06T07:50:09;101764.81;;;6.68;61.16
72086;BME280;64750;52.134;5.424;2023-04-06T07:52:36;101765.63;;;6.70;60.79
72086;BME280;64750;52.134;5.424;2023-04-06T07:55:04;101759.44;;;6.72;61.05
72086;BME280;64750;52.134;5.424;2023-04-06T07:57:30;101765.50;;;6.75;61.14
72086;BME280;64750;52.134;5.424;2023-04-06T07:59:57;101760.16;;;6.78;61.15
72086;BME280;64750;52.134;5.424;2023-04-06T08:02:23;101767.94;;;6.81;61.30
72086;BME280;64750;52.134;5.424;2023-04-06T08:04:50;101767.94;;;6.81;61.15
72086;BME280;64750;52.134;5.424;2023-04-06T08:07:16;101764.38;;;6.83;61.39
72086;BME280;64750;52.134;5.424;2023-04-06T08:09:43;101769.56;;;6.85;61.22
72086;BME280;64750;52.134;5.424;2023-04-06T08:12:09;101769.50;;;6.86;61.29
72086;BME280;64750;52.134;5.424;2023-04-06T08:14:35;101762.44;;;6.90;61.32
72086;BME280;64750;52.134;5.424;2023-04-06T08:17:02;101765.84;;;6.92;61.34
72086;BME280;64750;52.134;5.424;2023-04-06T08:19:31;101762.28;;;6.95;61.29
72086;BME280;64750;52.134;5.424;2023-04-06T08:21:58;101757.88;;;6.97;61.39
72086;BME280;64750;52.134;5.424;2023-04-06T08:24:24;101759.59;;;6.98;61.60
72086;BME280;64750;52.134;5.424;2023-04-06T08:26:51;101753.47;;;6.99;61.52
72086;BME280;64750;52.134;5.424;2023-04-06T08:29:18;101758.63;;;7.00;61.82
72086;BME280;64750;52.134;5.424;2023-04-06T08:31:44;101756.81;;;7.02;61.79
72086;BME280;64750;52.134;5.424;2023-04-06T08:34:11;101758.53;;;7.03;61.76
72086;BME280;64750;52.134;5.424;2023-04-06T08:36:40;101753.31;;;7.03;62.10
72086;BME280;64750;52.134;5.424;2023-04-06T08:39:07;101750.63;;;7.06;62.00
72086;BME280;64750;52.134;5.424;2023-04-06T08:41:34;101754.06;;;7.07;62.04
72086;BME280;64750;52.134;5.424;2023-04-06T08:44:01;101747.03;;;7.09;61.95
72086;BME280;64750;52.134;5.424;2023-04-06T08:46:29;101746.94;;;7.12;62.11
72086;BME280;64750;52.134;5.424;2023-04-06T08:48:57;101753.81;;;7.15;62.11
72086;BME280;64750;52.134;5.424;2023-04-06T08:51:25;101755.53;;;7.16;62.23
72086;BME280;64750;52.134;5.424;2023-04-06T08:53:56;101751.16;;;7.16;62.31
72086;BME280;64750;52.134;5.424;2023-04-06T08:56:23;101754.53;;;7.20;62.25
72086;BME280;64750;52.134;5.424;2023-04-06T08:58:50;101749.25;;;7.21;62.34
72086;BME280;64750;52.134;5.424;2023-04-06T09:01:25;101755.31;;;7.23;62.59
72086;BME280;64750;52.134;5.424;2023-04-06T09:03:56;101755.19;;;7.27;62.77
72086;BME280;64750;52.134;5.424;2023-04-06T09:06:24;101755.06;;;7.31;63.13
72086;BME280;64750;52.134;5.424;2023-04-06T09:08:52;101754.94;;;7.36;63.05
72086;BME280;64750;52.134;5.424;2023-04-06T09:11:19;101760.06;;;7.39;63.12
72086;BME280;64750;52.134;5.424;2023-04-06T09:13:52;101755.59;;;7.43;63.35
72086;BME280;64750;52.134;5.424;2023-04-06T09:16:21;101761.53;;;7.48;63.11
72086;BME280;64750;52.134;5.424;2023-04-06T09:18:47;101764.91;;;7.51;63.20
72086;BME280;64750;52.134;5.424;2023-04-06T09:21:17;101759.56;;;7.54;63.33
72086;BME280;64750;52.134;5.424;2023-04-06T09:23:44;101760.38;;;7.57;63.12
72086;BME280;64750;52.134;5.424;2023-04-06T09:26:13;101754.13;;;7.61;63.48
72086;BME280;64750;52.134;5.424;2023-04-06T09:28:47;101745.38;;;7.62;63.18
72086;BME280;64750;52.134;5.424;2023-04-06T09:31:25;101757.44;;;7.66;63.11
72086;BME280;64750;52.134;5.424;2023-04-06T09:33:53;101751.19;;;7.70;63.38
72086;BME280;64750;52.134;5.424;2023-04-06T09:36:19;101753.75;;;7.71;63.54
72086;BME280;64750;52.134;5.424;2023-04-06T09:38:57;101758.03;;;7.74;63.30
72086;BME280;64750;52.134;5.424;2023-04-06T09:41:25;101756.28;;;7.75;62.89
72086;BME280;64750;52.134;5.424;2023-04-06T09:44:01;101757.94;;;7.77;63.52
72086;BME280;64750;52.134;5.424;2023-04-06T09:46:31;101753.50;;;7.79;63.66
72086;BME280;64750;52.134;5.424;2023-04-06T09:49:17;101755.13;;;7.83;63.39
72086;BME280;64750;52.134;5.424;2023-04-06T09:51:46;101759.41;;;7.86;63.54
72086;BME280;64750;52.134;5.424;2023-04-06T09:54:19;101754.88;;;7.89;63.69
72086;BME280;64750;52.134;5.424;2023-04-06T09:59:21;101748.50;;;7.98;64.50
72086;BME280;64750;52.134;5.424;2023-04-06T10:01:52;101747.53;;;8.01;65.18
72086;BME280;64750;52.134;5.424;2023-04-06T10:04:36;101754.38;;;8.05;65.51
72086;BME280;64750;52.134;5.424;2023-04-06T10:07:06;101742.06;;;8.07;65.54
72086;BME280;64750;52.134;5.424;2023-04-06T10:09:35;101747.22;;;8.10;66.01
72086;BME280;64750;52.134;5.424;2023-04-06T10:12:07;101745.38;;;8.12;66.46
72086;BME280;64750;52.134;5.424;2023-04-06T10:14:34;101747.09;;;8.13;66.39
72086;BME280;64750;52.134;5.424;2023-04-06T10:17:04;101758.34;;;8.17;66.45
72086;BME280;64750;52.134;5.424;2023-04-06T10:19:50;101753.84;;;8.20;66.98
72086;BME280;64750;52.134;5.424;2023-04-06T10:22:24;101761.53;;;8.25;67.09
72086;BME280;64750;52.134;5.424;2023-04-06T10:24:52;101754.41;;;8.29;67.49
72086;BME280;64750;52.134;5.424;2023-04-06T10:27:28;101757.84;;;8.31;68.57
72086;BME280;64750;52.134;5.424;2023-04-06T10:30:01;101752.47;;;8.34;68.97
72086;BME280;64750;52.134;5.424;2023-04-06T10:32:38;101758.53;;;8.36;69.16
72086;BME280;64750;52.134;5.424;2023-04-06T10:35:06;101758.63;;;8.33;69.09
72086;BME280;64750;52.134;5.424;2023-04-06T10:37:52;101758.63;;;8.33;69.20
72086;BME280;64750;52.134;5.424;2023-04-06T10:40:25;101755.09;;;8.34;70.47
72086;BME280;64750;52.134;5.424;2023-04-06T10:43:06;101750.78;;;8.33;70.52
72086;BME280;64750;52.134;5.424;2023-04-06T10:45:33;101751.66;;;8.32;71.58
72086;BME280;64750;52.134;5.424;2023-04-06T10:47:59;101756.91;;;8.32;72.52
72086;BME280;64750;52.134;5.424;2023-04-06T10:50:28;101752.59;;;8.31;73.15
72086;BME280;64750;52.134;5.424;2023-04-06T10:52:59;101747.38;;;8.31;73.69
72086;BME280;64750;52.134;5.424;2023-04-06T10:55:27;101750.00;;;8.29;73.82
72086;BME280;64750;52.134;5.424;2023-04-06T10:57:54;101751.78;;;8.29;74.22
72086;BME280;64750;52.134;5.424;2023-04-06T11:00:21;101749.25;;;8.27;74.73
72086;BME280;64750;52.134;5.424;2023-04-06T11:02:47;101751.03;;;8.25;75.27
72086;BME280;64750;52.134;5.424;2023-04-06T11:05:14;101741.59;;;8.21;75.67
72086;BME280;64750;52.134;5.424;2023-04-06T11:07:41;101744.34;;;8.18;75.56
72086;BME280;64750;52.134;5.424;2023-04-06T11:10:08;101742.63;;;8.17;76.34
72086;BME280;64750;52.134;5.424;2023-04-06T11:12:37;101737.38;;;8.17;76.67
72086;BME280;64750;52.134;5.424;2023-04-06T11:15:04;101743.47;;;8.17;77.05
72086;BME280;64750;52.134;5.424;2023-04-06T11:17:34;101739.19;;;8.15;77.55
72086;BME280;64750;52.134;5.424;2023-04-06T11:20:03;101735.72;;;8.14;78.40
72086;BME280;64750;52.134;5.424;2023-04-06T11:22:30;101737.44;;;8.15;78.53
72086;BME280;64750;52.134;5.424;2023-04-06T11:25:07;101726.03;;;8.16;78.71
72086;BME280;64750;52.134;5.424;2023-04-06T11:27:38;101733.88;;;8.16;78.57
72086;BME280;64750;52.134;5.424;2023-04-06T11:30:08;101726.84;;;8.18;78.50
72086;BME280;64750;52.134;5.424;2023-04-06T11:32:45;101730.38;;;8.17;78.89
72086;BME280;64750;52.134;5.424;2023-04-06T11:35:22;101725.13;;;8.17;78.77
72086;BME280;64750;52.134;5.424;2023-04-06T11:37:50;101718.16;;;8.18;78.96
72086;BME280;64750;52.134;5.424;2023-04-06T11:40:23;101720.72;;;8.19;79.48
72086;BME280;64750;52.134;5.424;2023-04-06T11:42:55;101725.03;;;8.20;79.81
72086;BME280;64750;52.134;5.424;2023-04-06T11:45:22;101713.63;;;8.21;79.67
72086;BME280;64750;52.134;5.424;2023-04-06T11:47:59;101712.78;;;8.21;79.34
72086;BME280;64750;52.134;5.424;2023-04-06T11:50:32;101710.31;;;8.16;79.45
72086;BME280;64750;52.134;5.424;2023-04-06T11:53:00;101705.97;;;8.17;79.52
72086;BME280;64750;52.134;5.424;2023-04-06T11:55:27;101711.19;;;8.17;79.58
72086;BME280;64750;52.134;5.424;2023-04-06T11:57:54;101709.34;;;8.19;79.73
72086;BME280;64750;52.134;5.424;2023-04-06T12:00:22;101698.03;;;8.18;79.54
72086;BME280;64750;52.134;5.424;2023-04-06T12:02:49;101696.22;;;8.20;79.51
72086;BME280;64750;52.134;5.424;2023-04-06T12:05:15;101696.22;;;8.20;79.81
72086;BME280;64750;52.134;5.424;2023-04-06T12:07:42;101697.13;;;8.19;79.92
72086;BME280;64750;52.134;5.424;2023-04-06T12:10:09;101691.00;;;8.20;79.60
72086;BME280;64750;52.134;5.424;2023-04-06T12:12:35;101688.31;;;8.22;80.00
72086;BME280;64750;52.134;5.424;2023-04-06T12:15:02;101700.50;;;8.23;79.64
72086;BME280;64750;52.134;5.424;2023-04-06T12:17:29;101691.00;;;8.20;79.55
72086;BME280;64750;52.134;5.424;2023-04-06T12:19:55;101686.59;;;8.21;79.84
72086;BME280;64750;52.134;5.424;2023-04-06T12:22:30;101687.50;;;8.20;80.23
72086;BME280;64750;52.134;5.424;2023-04-06T12:24:56;101686.59;;;8.21;80.02
72086;BME280;64750;52.134;5.424;2023-04-06T12:27:23;101684.03;;;8.19;79.88
72086;BME280;64750;52.134;5.424;2023-04-06T12:29:49;101684.88;;;8.20;80.01
72086;BME280;64750;52.134;5.424;2023-04-06T12:32:16;101680.53;;;8.20;80.31
72086;BME280;64750;52.134;5.424;2023-04-06T12:34:42;101682.19;;;8.21;80.65
72086;BME280;64750;52.134;5.424;2023-04-06T12:37:08;101678.69;;;8.23;81.01
72086;BME280;64750;52.134;5.424;2023-04-06T12:39:35;101679.50;;;8.25;80.84
72086;BME280;64750;52.134;5.424;2023-04-06T12:42:01;101672.59;;;8.22;80.75
72086;BME280;64750;52.134;5.424;2023-04-06T12:44:29;101676.19;;;8.19;80.82
72086;BME280;64750;52.134;5.424;2023-04-06T12:46:55;101674.53;;;8.17;80.85
72086;BME280;64750;52.134;5.424;2023-04-06T12:49:22;101670.13;;;8.17;80.89
72086;BME280;64750;52.134;5.424;2023-04-06T12:51:48;101665.03;;;8.14;80.66
72086;BME280;64750;52.134;5.424;2023-04-06T12:54:16;101670.25;;;8.14;80.99
72086;BME280;64750;52.134;5.424;2023-04-06T12:56:42;101665.03;;;8.14;81.19
72086;BME280;64750;52.134;5.424;2023-04-06T12:59:09;101656.28;;;8.15;81.44
72086;BME280;64750;52.134;5.424;2023-04-06T13:01:36;101665.88;;;8.15;81.41
72086;BME280;64750;52.134;5.424;2023-04-06T13:04:03;101651.88;;;8.16;81.18
72086;BME280;64750;52.134;5.424;2023-04-06T13:06:29;101654.44;;;8.17;81.30
72086;BME280;64750;52.134;5.424;2023-04-06T13:08:56;101652.63;;;8.19;81.08